Time;durP1;ratioP1;P1;durP2;ratioP2;P2;SDS_P1;SDS_P2;PMS_P1;PMS_P2;Temp;Humidity;BMP_temperature;BMP_pressure;BME280_temperature;BME280_humidity;BME280_pressure;Samples;Min_cycle;Max_cycle;Signal;HPM_P1;HPM_P2
2023/03/10 00:01:39;;;;;;;2.00;1.80;;;;;;;-143.84;66.99;45104.28;5091093;28;20442;-78
2023/03/10 00:04:08;;;;;;;3.10;1.40;;;;;;;-143.84;67.27;45071.91;5090848;28;20486;-78
2023/03/10 00:06:37;;;;;;;1.70;1.60;;;;;;;-143.84;67.35;45075.72;5091757;28;20998;-78
2023/03/10 00:09:04;;;;;;;1.70;1.60;;;;;;;-143.84;67.48;45070.00;5092494;28;20436;-78
2023/03/10 00:11:31;;;;;;;1.93;1.60;;;;;;;-143.84;67.90;45100.47;5092328;28;20467;-77
2023/03/10 00:13:59;;;;;;;1.30;1.20;;;;;;;-143.84;67.72;45083.34;5091981;28;20428;-78
2023/03/10 00:16:29;;;;;;;1.20;1.10;;;;;;;-143.84;67.41;45096.66;5092038;28;20441;-78
2023/03/10 00:18:58;;;;;;;1.80;1.70;;;;;;;-143.84;67.70;45081.44;5092577;28;20479;-78
2023/03/10 00:21:28;;;;;;;2.27;2.17;;;;;;;-143.84;67.48;45075.72;5092021;28;20428;-78
2023/03/10 00:23:56;;;;;;;2.03;1.50;;;;;;;-143.84;67.94;45102.38;5091903;28;20483;-78
2023/03/10 00:26:26;;;;;;;1.50;1.40;;;;;;;-143.84;68.11;45081.44;5092388;28;20442;-78
2023/03/10 00:28:54;;;;;;;1.67;1.57;;;;;;;-143.84;68.30;45087.16;5090748;28;20428;-78
2023/03/10 00:31:23;;;;;;;1.50;1.40;;;;;;;-143.84;68.35;45085.25;5090873;28;20516;-78
2023/03/10 00:33:50;;;;;;;1.80;1.70;;;;;;;-143.84;67.89;45075.72;5091193;28;20443;-78
2023/03/10 00:36:20;;;;;;;2.20;1.47;;;;;;;-143.84;68.37;45102.38;5091349;28;20493;-78
2023/03/10 00:38:50;;;;;;;1.80;1.30;;;;;;;-143.84;68.77;45083.34;5091684;28;20508;-78
2023/03/10 00:41:19;;;;;;;2.70;1.60;;;;;;;-143.84;69.29;45087.16;5091566;28;20494;-77
2023/03/10 00:43:46;;;;;;;5.13;1.87;;;;;;;-143.84;69.86;45079.53;5091384;28;21068;-77
2023/03/10 00:46:14;;;;;;;2.40;2.20;;;;;;;-143.84;70.55;45096.66;5091557;28;20431;-78
2023/03/10 00:48:41;;;;;;;1.90;1.80;;;;;;;-143.84;71.53;45094.78;5091003;28;20432;-78
2023/03/10 00:51:09;;;;;;;2.07;1.60;;;;;;;-143.84;71.98;45081.44;5091483;28;20435;-78
2023/03/10 00:53:38;;;;;;;1.53;1.43;;;;;;;-143.84;71.96;45071.91;5091435;28;20827;-77
2023/03/10 00:56:08;;;;;;;2.30;1.93;;;;;;;-143.84;72.15;45071.91;5089650;28;20501;-77
2023/03/10 00:58:36;;;;;;;1.97;1.40;;;;;;;-143.84;72.55;45104.28;5090670;28;20928;-77
2023/03/10 01:01:05;;;;;;;1.80;1.70;;;;;;;-143.84;72.95;45079.53;5091334;28;20857;-77
2023/03/10 01:03:32;;;;;;;2.30;1.60;;;;;;;-143.84;73.23;45060.50;5091102;28;20527;-77
2023/03/10 01:06:00;;;;;;;2.60;1.60;;;;;;;-143.84;73.89;45043.34;5091112;28;20504;-77
2023/03/10 01:08:27;;;;;;;1.67;1.57;;;;;;;-143.84;74.70;45071.91;5091213;28;20503;-77
2023/03/10 01:10:54;;;;;;;2.17;1.80;;;;;;;-143.84;74.81;45077.63;5090877;28;20455;-77
2023/03/10 01:13:22;;;;;;;3.30;1.70;;;;;;;-143.84;75.21;45054.78;5091258;28;20436;-77
2023/03/10 01:15:50;;;;;;;1.90;1.80;;;;;;;-143.84;75.86;45045.25;5091224;28;20448;-78
2023/03/10 01:18:20;;;;;;;2.20;2.00;;;;;;;-143.84;76.34;45035.75;5091431;28;20440;-77
2023/03/10 01:20:47;;;;;;;2.93;1.93;;;;;;;-143.84;76.88;45064.31;5090810;28;20942;-77
2023/03/10 01:23:15;;;;;;;1.67;1.57;;;;;;;-143.84;77.13;45064.31;5089812;28;20532;-77
2023/03/10 01:25:43;;;;;;;3.43;1.90;;;;;;;-143.84;77.53;45045.25;5090922;28;20445;-77
2023/03/10 01:28:11;;;;;;;3.53;1.90;;;;;;;-143.84;77.91;45033.84;5091814;28;20428;-78
2023/03/10 01:30:40;;;;;;;2.73;1.50;;;;;;;-143.84;78.20;45007.19;5091494;28;20437;-78
2023/03/10 01:33:08;;;;;;;3.60;2.63;;;;;;;-143.84;78.30;44990.03;5091110;28;20447;-78
2023/03/10 01:35:35;;;;;;;7.47;2.37;;;;;;;-143.84;78.92;44982.41;5091587;28;20496;-78
2023/03/10 01:38:03;;;;;;;2.30;2.10;;;;;;;-143.84;79.20;44982.41;5090589;28;20492;-78
2023/03/10 01:40:31;;;;;;;4.50;2.40;;;;;;;-143.84;79.19;44969.09;5091372;28;20499;-77
2023/03/10 01:43:33;;;;;;;2.40;2.20;;;;;;;-143.84;79.87;44976.72;5091190;28;20433;-78
2023/03/10 01:46:47;;;;;;;2.37;2.23;;;;;;;-143.84;79.62;44978.63;4991169;28;20480;-78
2023/03/10 01:49:37;;;;;;;2.10;2.00;;;;;;;-143.84;79.68;44961.47;4991130;28;20499;-78
2023/03/10 01:52:09;;;;;;;2.40;2.13;;;;;;;-143.84;79.39;44990.03;5087280;28;20448;-78
2023/03/10 01:54:43;;;;;;;2.00;1.90;;;;;;;-143.84;79.49;45014.78;5094252;28;20435;-78
2023/03/10 01:57:11;;;;;;;2.57;2.10;;;;;;;-143.84;79.23;44995.75;5094475;28;20432;-78
2023/03/10 01:59:39;;;;;;;2.07;1.97;;;;;;;-143.84;79.59;44999.56;5094455;28;20444;-78
2023/03/10 02:02:07;;;;;;;2.37;2.13;;;;;;;-143.84;79.42;44982.41;5092564;28;20447;-78
2023/03/10 02:04:41;;;;;;;2.57;2.37;;;;;;;-143.84;79.34;45007.19;5090344;28;20478;-78
2023/03/10 02:07:08;;;;;;;2.67;2.10;;;;;;;-143.84;79.85;44999.56;5091277;28;20507;-78
2023/03/10 02:09:40;;;;;;;4.83;2.37;;;;;;;-143.84;79.80;44953.88;5094281;28;20438;-78
2023/03/10 02:12:11;;;;;;;3.23;2.10;;;;;;;-143.84;79.96;44953.88;5093399;28;20442;-78
2023/03/10 02:14:39;;;;;;;2.23;2.10;;;;;;;-143.84;80.08;44982.41;5091303;28;20450;-78
2023/03/10 02:17:09;;;;;;;2.50;2.30;;;;;;;-143.84;80.56;44948.16;5094046;28;20956;-76
2023/03/10 02:19:59;;;;;;;2.50;2.40;;;;;;;-143.84;80.83;44921.50;5092083;28;20436;-76
2023/03/10 02:22:27;;;;;;;2.20;2.10;;;;;;;-143.84;80.54;44927.19;5092669;28;20458;-76
2023/03/10 02:25:02;;;;;;;2.97;2.67;;;;;;;-143.84;81.02;44921.50;5092797;28;20462;-76
2023/03/10 02:27:33;;;;;;;2.90;2.70;;;;;;;-143.84;81.16;44910.06;5092566;28;20520;-76
2023/03/10 02:30:05;;;;;;;2.77;2.57;;;;;;;-143.84;81.37;44919.59;5092779;28;20432;-76
2023/03/10 02:32:35;;;;;;;3.10;2.90;;;;;;;-143.84;81.24;44862.47;5092606;28;20507;-76
2023/03/10 02:35:03;;;;;;;3.07;2.87;;;;;;;-143.84;81.57;44889.13;5092246;28;20440;-76
2023/03/10 02:37:32;;;;;;;5.60;2.83;;;;;;;-143.84;81.99;44860.56;5092560;28;20484;-76
2023/03/10 02:39:59;;;;;;;2.83;2.60;;;;;;;-143.84;82.01;44847.22;5091863;28;20459;-77
2023/03/10 02:42:31;;;;;;;3.43;2.90;;;;;;;-143.84;82.00;44851.03;5091605;28;20442;-72
2023/03/10 02:44:58;;;;;;;3.57;2.60;;;;;;;-143.84;82.07;44877.69;5091432;28;20998;-72
2023/03/10 02:47:25;;;;;;;3.17;2.97;;;;;;;-143.84;82.85;44774.88;5091580;28;20482;-72
2023/03/10 02:49:53;;;;;;;4.27;3.57;;;;;;;-143.84;82.86;44763.47;5091577;28;20447;-72
2023/03/10 02:52:29;;;;;;;2.83;2.73;;;;;;;-143.84;82.93;44797.72;5091630;28;20450;-72
2023/03/10 02:54:58;;;;;;;4.23;3.27;;;;;;;-143.84;82.99;44767.25;5091485;28;20436;-72
2023/03/10 02:57:25;;;;;;;3.10;2.90;;;;;;;-143.84;83.52;44738.69;5077600;28;20451;-72
2023/03/10 02:59:54;;;;;;;3.10;2.90;;;;;;;-143.84;83.94;44708.25;5071363;28;20438;-72
2023/03/10 03:02:21;;;;;;;3.33;3.13;;;;;;;-143.84;83.80;44698.72;5070791;28;20456;-72
2023/03/10 03:04:48;;;;;;;3.50;2.70;;;;;;;-143.84;83.55;44698.72;5070666;28;20482;-73
2023/03/10 03:07:15;;;;;;;2.93;2.60;;;;;;;-143.84;83.90;44670.16;5070286;28;20800;-74
2023/03/10 03:09:42;;;;;;;3.10;2.53;;;;;;;-143.84;83.94;44681.59;5069966;28;20503;-74
2023/03/10 03:12:10;;;;;;;2.80;2.60;;;;;;;-143.84;84.09;44609.22;5070811;28;20945;-72
2023/03/10 03:14:37;;;;;;;4.00;3.40;;;;;;;-143.84;84.60;44561.63;5070522;28;20433;-72
2023/03/10 03:17:05;;;;;;;3.50;3.20;;;;;;;-143.84;84.77;44527.38;5070853;28;20438;-72
2023/03/10 03:19:33;;;;;;;3.40;3.20;;;;;;;-143.84;84.34;44561.63;5070794;28;20442;-72
2023/03/10 03:22:01;;;;;;;3.30;2.90;;;;;;;-143.84;84.63;44595.91;5070256;28;20449;-72
2023/03/10 03:24:30;;;;;;;3.43;3.23;;;;;;;-143.84;84.69;44561.63;5070522;28;20880;-72
2023/03/10 03:26:58;;;;;;;4.00;3.60;;;;;;;-143.84;84.60;44517.84;5070532;28;20447;-72
2023/03/10 03:29:25;;;;;;;5.10;3.60;;;;;;;-143.84;85.24;44456.94;5070384;28;20453;-72
2023/03/10 03:31:52;;;;;;;3.53;3.23;;;;;;;-143.84;85.08;44388.38;5069309;28;20503;-72
2023/03/10 03:34:20;;;;;;;3.77;3.47;;;;;;;-143.84;85.13;44390.28;5069915;28;20449;-72
2023/03/10 03:36:48;;;;;;;3.53;3.33;;;;;;;-143.84;85.34;44416.94;5069871;28;20484;-72
2023/03/10 03:39:16;;;;;;;3.93;3.53;;;;;;;-143.84;85.64;44333.19;5070308;28;20977;-72
2023/03/10 03:41:43;;;;;;;4.27;3.87;;;;;;;-143.84;85.43;44335.09;5070301;28;21268;-72
2023/03/10 03:44:10;;;;;;;5.70;3.23;;;;;;;-143.84;85.80;44281.78;5070270;28;20482;-72
2023/03/10 03:46:39;;;;;;;5.10;3.90;;;;;;;-143.84;85.85;44264.66;5070158;28;20445;-71
2023/03/10 03:49:10;;;;;;;4.00;3.70;;;;;;;-143.84;85.66;44173.25;5069669;28;20453;-72
2023/03/10 03:51:38;;;;;;;4.10;3.80;;;;;;;-143.84;85.83;44234.19;5070037;28;20438;-72
2023/03/10 03:54:05;;;;;;;5.00;4.40;;;;;;;-143.84;86.17;44199.91;5069908;28;20506;-72
2023/03/10 03:56:33;;;;;;;5.80;4.27;;;;;;;-143.84;86.01;44125.69;5069586;28;20444;-72
2023/03/10 03:59:00;;;;;;;4.70;4.20;;;;;;;-143.84;86.26;44060.94;5069048;28;20444;-72
2023/03/10 04:01:27;;;;;;;4.00;3.70;;;;;;;-143.84;86.31;44089.50;5069439;28;20449;-72
2023/03/10 04:03:54;;;;;;;4.73;4.33;;;;;;;-143.84;86.51;44062.84;5069685;28;20970;-72
2023/03/10 04:06:22;;;;;;;4.83;4.43;;;;;;;-143.84;86.57;44059.03;5070096;28;20474;-72
2023/03/10 04:08:51;;;;;;;4.27;3.97;;;;;;;-143.84;86.69;44026.69;5071687;28;20501;-72
2023/03/10 04:11:18;;;;;;;4.13;3.90;;;;;;;-143.84;86.60;44011.47;5069088;28;20456;-72
2023/03/10 04:13:45;;;;;;;4.10;3.80;;;;;;;-143.84;86.31;44093.31;5069863;28;20429;-72
2023/03/10 04:16:12;;;;;;;5.03;4.73;;;;;;;-143.84;86.03;44158.03;5069853;28;20469;-72
2023/03/10 04:18:40;;;;;;;4.50;3.70;;;;;;;-143.84;86.01;44144.72;5069173;28;20450;-70
2023/03/10 04:21:07;;;;;;;3.40;3.20;;;;;;;-143.84;86.08;44093.31;5069368;28;20456;-71
2023/03/10 04:23:34;;;;;;;4.80;4.13;;;;;;;-143.84;86.25;44192.31;5068021;28;20448;-71
2023/03/10 04:26:07;;;;;;;3.77;3.57;;;;;;;-143.84;85.76;44249.41;5069121;28;20489;-71
2023/03/10 04:28:34;;;;;;;4.87;4.43;;;;;;;-143.84;85.66;44295.09;5069254;28;20427;-71
2023/03/10 04:31:01;;;;;;;6.40;4.97;;;;;;;-143.84;85.99;44262.75;5069083;28;20576;-71
2023/03/10 04:33:28;;;;;;;5.97;4.77;;;;;;;-143.84;85.96;44277.97;5069761;28;20883;-71
2023/03/10 04:35:57;;;;;;;4.00;3.70;;;;;;;-143.84;85.90;44266.53;5069052;28;20436;-73
2023/03/10 04:38:24;;;;;;;4.23;3.93;;;;;;;-143.84;86.17;44245.59;5069845;28;20491;-72
2023/03/10 04:40:57;;;;;;;8.73;4.17;;;;;;;-143.84;85.95;44169.47;5069783;28;20955;-73
2023/03/10 04:43:26;;;;;;;3.83;3.63;;;;;;;-143.84;86.39;44159.94;5069919;28;20812;-71
2023/03/10 04:45:54;;;;;;;4.63;4.23;;;;;;;-143.84;86.38;44095.22;5074934;28;20490;-70
2023/03/10 04:48:22;;;;;;;4.13;3.83;;;;;;;-143.84;86.55;44112.34;5088761;28;20435;-72
2023/03/10 04:50:56;;;;;;;8.63;6.60;;;;;;;-143.84;86.22;44102.84;5085741;28;20433;-72
2023/03/10 04:53:23;;;;;;;3.83;3.53;;;;;;;-143.84;86.42;44184.69;5088930;28;20490;-72
2023/03/10 04:55:51;;;;;;;4.70;3.57;;;;;;;-143.84;86.04;44270.34;5088714;28;20452;-70
2023/03/10 04:58:18;;;;;;;3.57;3.27;;;;;;;-143.84;85.60;44321.75;5089091;28;20452;-71
2023/03/10 05:00:49;;;;;;;3.00;2.80;;;;;;;-143.84;85.57;44392.19;5088901;28;20444;-71
2023/03/10 05:03:16;;;;;;;3.70;3.40;;;;;;;-143.84;85.08;44489.28;5089570;28;20448;-71
2023/03/10 05:05:44;;;;;;;3.53;3.10;;;;;;;-143.84;85.12;44496.91;5089372;28;20540;-71
2023/03/10 05:08:11;;;;;;;4.43;3.33;;;;;;;-143.84;85.26;44508.31;5078798;28;21244;-71
2023/03/10 05:10:40;;;;;;;3.47;3.27;;;;;;;-143.84;85.17;44485.47;5069078;28;20445;-71
2023/03/10 05:13:11;;;;;;;5.90;3.13;;;;;;;-143.84;84.87;44533.09;5068367;28;20499;-71
2023/03/10 05:15:39;;;;;;;3.13;2.93;;;;;;;-143.84;84.98;44590.19;5068375;28;20436;-72
2023/03/10 05:18:09;;;;;;;3.67;3.30;;;;;;;-143.84;84.69;44565.44;5068652;28;20959;-72
2023/03/10 05:20:37;;;;;;;3.00;2.87;;;;;;;-143.84;84.75;44611.13;5069887;28;20587;-72
2023/03/10 05:23:04;;;;;;;3.53;2.60;;;;;;;-143.84;84.54;44664.44;5072847;28;20958;-71
2023/03/10 05:25:31;;;;;;;2.43;2.33;;;;;;;-143.84;83.95;44727.28;5072674;28;20475;-71
2023/03/10 05:28:01;;;;;;;2.43;2.23;;;;;;;-143.84;83.79;44755.84;5079319;28;20438;-71
2023/03/10 05:30:28;;;;;;;2.40;2.20;;;;;;;-143.84;83.05;44833.91;5076176;28;20435;-71
2023/03/10 05:32:55;;;;;;;2.00;1.90;;;;;;;-143.84;82.66;44843.44;5075221;28;20497;-70
2023/03/10 05:35:24;;;;;;;2.53;2.40;;;;;;;-143.84;82.18;44889.13;5079905;28;20436;-71
2023/03/10 05:37:51;;;;;;;4.87;2.20;;;;;;;-143.84;81.33;44940.53;5080002;28;20472;-71
2023/03/10 05:40:19;;;;;;;7.67;2.07;;;;;;;-143.84;80.95;44982.41;5081094;28;20459;-71
2023/03/10 05:42:46;;;;;;;3.93;2.50;;;;;;;-143.84;80.33;44976.72;5077654;28;20446;-70
2023/03/10 05:45:14;;;;;;;2.93;2.57;;;;;;;-143.84;79.94;45005.28;5089316;28;20477;-72
2023/03/10 05:47:42;;;;;;;2.27;1.93;;;;;;;-143.84;79.66;45018.59;5078571;28;20476;-72
2023/03/10 05:50:13;;;;;;;2.87;2.20;;;;;;;-143.84;79.32;45009.09;5073709;28;20494;-71
2023/03/10 05:52:43;;;;;;;6.60;2.00;;;;;;;-143.84;79.21;45016.69;5070877;28;20512;-71
2023/03/10 05:55:13;;;;;;;6.80;2.40;;;;;;;-143.84;79.48;45009.09;5071433;28;20448;-72
2023/03/10 05:57:40;;;;;;;3.30;2.53;;;;;;;-143.84;79.45;44997.66;5071497;28;20497;-72
2023/03/10 06:00:10;;;;;;;4.30;2.40;;;;;;;-143.84;78.62;45003.38;5071757;28;20444;-71
2023/03/10 06:02:37;;;;;;;2.60;2.40;;;;;;;-143.84;78.03;45039.53;5071573;28;20548;-71
2023/03/10 06:05:05;;;;;;;2.23;2.03;;;;;;;-143.84;76.90;45047.16;5071318;28;20882;-72
2023/03/10 06:07:33;;;;;;;5.17;2.20;;;;;;;-143.84;76.26;45077.63;5070826;28;20509;-71
2023/03/10 06:10:02;;;;;;;2.37;1.73;;;;;;;-143.84;74.75;45064.31;5071180;28;20504;-72
2023/03/10 06:12:29;;;;;;;2.50;2.30;;;;;;;-143.84;73.53;45068.13;5071115;28;20480;-72
2023/03/10 06:14:56;;;;;;;2.90;2.10;;;;;;;-143.84;72.82;45054.78;5071319;28;20447;-72
2023/03/10 06:17:28;;;;;;;2.10;2.00;;;;;;;-143.84;72.01;45087.16;5070787;28;20509;-72
2023/03/10 06:19:55;;;;;;;7.23;2.60;;;;;;;-143.84;70.91;45062.41;5071416;28;20443;-72
2023/03/10 06:22:22;;;;;;;3.53;1.90;;;;;;;-143.84;69.64;45087.16;5071628;28;20436;-72
2023/03/10 06:24:49;;;;;;;2.60;2.00;;;;;;;-143.84;69.36;45085.25;5070439;28;20542;-72
2023/03/10 06:27:18;;;;;;;2.70;2.00;;;;;;;-143.84;68.70;45062.41;5070564;28;20955;-72
2023/03/10 06:29:48;;;;;;;2.60;2.40;;;;;;;-143.84;68.24;45094.78;5070591;28;20449;-72
2023/03/10 06:32:15;;;;;;;3.13;2.93;;;;;;;-143.84;67.57;45094.78;5069760;28;20461;-72
2023/03/10 06:34:42;;;;;;;4.37;2.90;;;;;;;-143.84;67.01;45077.63;5070313;28;20932;-71
2023/03/10 06:37:10;;;;;;;3.83;3.30;;;;;;;-143.84;67.67;45081.44;5070412;28;20884;-72
2023/03/10 06:39:39;;;;;;;7.60;3.13;;;;;;;-143.84;67.74;45079.53;5070702;28;20440;-72
2023/03/10 06:42:07;;;;;;;3.60;2.73;;;;;;;-143.84;67.80;45066.22;5069727;28;20450;-72
2023/03/10 06:44:36;;;;;;;6.90;3.00;;;;;;;-143.84;68.63;45045.25;5069055;28;20454;-72
2023/03/10 06:47:04;;;;;;;3.70;3.00;;;;;;;-143.84;69.23;45085.25;5069227;28;21038;-72
2023/03/10 06:49:32;;;;;;;11.10;3.63;;;;;;;-143.84;69.54;45081.44;5069178;28;20440;-72
2023/03/10 06:51:59;;;;;;;4.10;2.90;;;;;;;-143.84;69.83;45073.81;5070608;28;20453;-72
2023/03/10 06:54:27;;;;;;;5.70;3.37;;;;;;;-143.84;69.32;45087.16;5070846;28;20452;-72
2023/03/10 06:56:54;;;;;;;3.70;2.80;;;;;;;-143.84;69.97;45060.50;5070941;28;20502;-72
2023/03/10 06:59:21;;;;;;;2.93;2.53;;;;;;;-143.84;69.74;45071.91;5070916;28;20442;-72
2023/03/10 07:01:50;;;;;;;4.47;3.33;;;;;;;-143.84;69.89;45058.59;5070066;28;20876;-72
2023/03/10 07:04:17;;;;;;;7.30;3.47;;;;;;;-143.84;68.80;45060.50;5070165;28;20452;-72
2023/03/10 07:06:44;;;;;;;2.50;2.27;;;;;;;-143.84;67.64;45054.78;5070515;28;20990;-72
2023/03/10 07:09:11;;;;;;;3.10;2.70;;;;;;;-143.84;66.13;45058.59;5070262;28;20448;-72
2023/03/10 07:11:38;;;;;;;17.97;5.73;;;;;;;-143.84;65.06;45037.66;5070916;28;20434;-72
2023/03/10 07:14:06;;;;;;;24.40;8.40;;;;;;;-143.84;64.20;45083.34;5070803;28;20430;-72
2023/03/10 07:16:33;;;;;;;12.23;9.20;;;;;;;-143.84;64.54;45073.81;5070210;28;20811;-72
2023/03/10 07:19:01;;;;;;;14.80;9.73;;;;;;;-143.84;65.08;45054.78;5070039;28;20447;-72
2023/03/10 07:21:29;;;;;;;16.93;6.47;;;;;;;-143.84;64.49;45052.88;5070088;28;20513;-72
2023/03/10 07:23:58;;;;;;;7.13;6.43;;;;;;;-143.84;63.88;45079.53;5069597;28;20446;-72
2023/03/10 07:26:25;;;;;;;10.47;6.40;;;;;;;-143.84;62.63;45071.91;5069274;28;20511;-72
2023/03/10 07:28:53;;;;;;;16.70;8.30;;;;;;;-143.84;62.51;45045.25;5075884;28;20465;-73
2023/03/10 07:31:20;;;;;;;16.93;8.07;;;;;;;-143.84;61.14;45100.47;5089233;28;20436;-74
2023/03/10 07:33:48;;;;;;;8.70;6.80;;;;;;;-143.84;59.81;45062.41;5088878;28;20443;-74
2023/03/10 07:36:18;;;;;;;13.50;7.53;;;;;;;-143.84;59.14;45052.88;5088820;28;20446;-72
2023/03/10 07:38:46;;;;;;;16.23;8.17;;;;;;;-143.84;59.32;45052.88;5088565;28;20456;-72
2023/03/10 07:41:16;;;;;;;5.97;5.37;;;;;;;-143.84;58.30;45050.97;5088812;28;20456;-72
2023/03/10 07:43:45;;;;;;;5.57;5.07;;;;;;;-143.84;57.93;45058.59;5089819;28;20817;-72
2023/03/10 07:46:14;;;;;;;5.73;4.80;;;;;;;-143.84;57.48;45062.41;5089423;28;20567;-72
2023/03/10 07:48:41;;;;;;;6.80;4.70;;;;;;;-143.84;55.85;45041.44;5089897;28;20986;-74
2023/03/10 07:51:09;;;;;;;4.73;3.93;;;;;;;-143.84;54.23;45056.69;5089719;28;20452;-72
2023/03/10 07:53:37;;;;;;;3.67;3.37;;;;;;;-143.84;53.89;45050.97;5089582;28;21311;-74
2023/03/10 07:56:06;;;;;;;6.20;3.20;;;;;;;-143.84;53.52;45043.34;5089164;28;20439;-74
2023/03/10 07:58:33;;;;;;;2.80;2.70;;;;;;;-143.84;53.98;45050.97;5089183;28;20440;-74
2023/03/10 08:01:01;;;;;;;2.60;2.40;;;;;;;-143.84;52.67;45062.41;5089727;28;20965;-73
2023/03/10 08:03:29;;;;;;;2.90;2.50;;;;;;;-143.84;54.11;45041.44;5089773;28;20444;-74
2023/03/10 08:05:58;;;;;;;2.43;2.23;;;;;;;-143.84;54.57;45052.88;5089286;28;20479;-74
2023/03/10 08:08:26;;;;;;;2.47;1.80;;;;;;;-143.84;54.54;45068.13;5088646;28;20454;-72
2023/03/10 08:11:02;;;;;;;3.77;3.47;;;;;;;-143.84;53.78;45028.13;5088368;28;20444;-74
2023/03/10 08:13:30;;;;;;;5.17;4.33;;;;;;;-143.84;53.78;45043.34;5088409;28;20786;-74
2023/03/10 08:16:00;;;;;;;4.73;3.53;;;;;;;-143.84;52.67;45024.31;5088750;28;20448;-74
2023/03/10 08:18:28;;;;;;;7.50;3.90;;;;;;;-143.84;51.55;45035.75;5088957;28;20440;-74
2023/03/10 08:20:55;;;;;;;4.13;3.83;;;;;;;-143.84;51.48;45014.78;5088363;28;20459;-74
2023/03/10 08:23:23;;;;;;;5.03;3.27;;;;;;;-143.84;51.84;45033.84;5087751;28;20462;-74
2023/03/10 08:25:51;;;;;;;5.00;3.77;;;;;;;-143.84;52.30;45018.59;5087540;28;20528;-72
2023/03/10 08:28:19;;;;;;;8.63;3.63;;;;;;;-143.84;49.59;45031.94;5088198;28;20501;-72
2023/03/10 08:30:46;;;;;;;4.90;3.50;;;;;;;-143.84;49.41;45041.44;5087967;28;21106;-72
2023/03/10 08:33:14;;;;;;;6.03;3.83;;;;;;;-143.84;48.78;45024.31;5087647;28;20489;-72
2023/03/10 08:35:41;;;;;;;3.73;3.27;;;;;;;-143.84;48.14;45009.09;5088092;28;20436;-72
2023/03/10 08:38:08;;;;;;;5.60;3.33;;;;;;;-143.84;47.65;45022.41;5088954;28;20487;-72
2023/03/10 08:40:35;;;;;;;6.13;3.10;;;;;;;-143.84;47.70;45030.03;5089372;28;20480;-72
2023/03/10 08:43:02;;;;;;;4.60;4.20;;;;;;;-143.84;46.36;45003.38;5088731;28;20444;-72
2023/03/10 08:45:34;;;;;;;10.83;4.10;;;;;;;-143.84;45.70;45007.19;5089629;28;20846;-72
2023/03/10 08:48:01;;;;;;;4.10;3.80;;;;;;;-143.84;45.79;45031.94;5088701;28;20513;-72
2023/03/10 08:50:28;;;;;;;7.87;4.37;;;;;;;-143.84;46.00;45009.09;5088845;28;20448;-72
2023/03/10 08:52:55;;;;;;;3.77;3.50;;;;;;;-143.84;45.01;45024.31;5089106;28;21002;-72
2023/03/10 08:55:23;;;;;;;8.17;4.20;;;;;;;-143.84;44.61;45022.41;5089704;28;20469;-72
2023/03/10 08:57:50;;;;;;;5.50;3.50;;;;;;;-143.84;43.82;44999.56;5093073;28;20440;-72
2023/03/10 09:00:19;;;;;;;8.73;3.43;;;;;;;-143.84;43.56;44993.84;5092848;28;20443;-72
2023/03/10 09:02:48;;;;;;;9.30;3.33;;;;;;;-143.84;44.33;45033.84;5092984;28;20446;-72
2023/03/10 09:05:15;;;;;;;2.90;2.70;;;;;;;-143.84;42.79;45014.78;5092705;28;20440;-72
2023/03/10 09:07:43;;;;;;;4.50;2.90;;;;;;;-143.84;42.24;44988.13;5092698;28;20424;-72
2023/03/10 09:10:11;;;;;;;5.93;2.93;;;;;;;-143.84;42.60;44991.94;5092791;28;20504;-72
2023/03/10 09:12:38;;;;;;;7.53;2.00;;;;;;;-143.84;41.71;45010.97;5092496;28;20447;-72
2023/03/10 09:15:06;;;;;;;1.97;1.77;;;;;;;-143.84;42.01;44986.22;5092662;28;20439;-72
2023/03/10 09:17:35;;;;;;;2.00;1.80;;;;;;;-143.84;39.95;45010.97;5092983;28;20443;-72
2023/03/10 09:20:05;;;;;;;3.80;2.50;;;;;;;-143.84;39.74;44991.94;5092582;28;20913;-72
2023/03/10 09:22:32;;;;;;;6.77;2.10;;;;;;;-143.84;40.20;45001.47;5092309;28;20939;-72
2023/03/10 09:24:59;;;;;;;2.20;1.50;;;;;;;-143.84;39.12;45001.47;5092963;28;20436;-72
2023/03/10 09:27:26;;;;;;;2.00;1.80;;;;;;;-143.84;39.03;45012.88;5092551;28;20479;-72
2023/03/10 09:29:54;;;;;;;5.10;2.00;;;;;;;-143.84;40.09;45012.88;5092198;28;20489;-72
2023/03/10 09:32:21;;;;;;;1.90;1.73;;;;;;;-143.84;40.23;45003.38;5092545;28;20443;-72
2023/03/10 09:34:48;;;;;;;1.43;1.33;;;;;;;-143.84;41.14;44995.75;5092248;28;20538;-73
2023/03/10 09:37:17;;;;;;;3.00;2.70;;;;;;;-143.84;40.86;45033.84;5091908;28;20487;-74
2023/03/10 09:39:44;;;;;;;5.23;3.00;;;;;;;-143.84;40.26;44980.53;5092175;28;20451;-72
2023/03/10 09:42:32;;;;;;;4.83;3.50;;;;;;;-143.84;40.52;45033.84;5092159;28;20508;-72
2023/03/10 09:45:19;;;;;;;7.40;3.47;;;;;;;-143.84;40.35;45005.28;5092140;28;21010;-72
2023/03/10 09:47:57;;;;;;;5.63;2.20;;;;;;;-143.84;39.26;44988.13;5091420;28;20479;-72
2023/03/10 09:50:33;;;;;;;1.97;1.87;;;;;;;-143.84;36.89;45005.28;5092047;28;20443;-72
2023/03/10 09:53:09;;;;;;;4.40;4.00;;;;;;;-143.84;39.76;45020.50;5091849;28;20446;-72
2023/03/10 09:55:40;;;;;;;3.57;3.27;;;;;;;-143.84;40.12;45010.97;5091861;28;20440;-72
2023/03/10 09:58:13;;;;;;;3.73;3.30;;;;;;;-143.84;40.94;45014.78;5092421;28;20420;-72
2023/03/10 10:00:42;;;;;;;5.10;3.23;;;;;;;-143.84;41.59;45030.03;5091870;28;20809;-74
2023/03/10 10:03:18;;;;;;;5.20;3.40;;;;;;;-143.84;42.04;44995.75;5090493;28;20522;-74
2023/03/10 10:05:47;;;;;;;4.80;3.10;;;;;;;-143.84;42.81;45049.06;5090453;28;20447;-73
2023/03/10 10:08:21;;;;;;;3.80;2.60;;;;;;;-143.84;42.82;44999.56;5091595;28;20436;-74
2023/03/10 10:10:54;;;;;;;2.73;2.50;;;;;;;-143.84;43.50;45033.84;5091672;28;20443;-74
2023/03/10 10:13:23;;;;;;;7.50;2.80;;;;;;;-143.84;44.86;45024.31;5091707;28;20471;-74
2023/03/10 10:15:58;;;;;;;2.03;1.93;;;;;;;-143.84;45.98;45056.69;5091549;28;20479;-74
2023/03/10 10:18:36;;;;;;;5.60;2.20;;;;;;;-143.84;46.24;45033.84;5091138;28;20443;-73
2023/03/10 10:21:13;;;;;;;2.30;1.80;;;;;;;-143.84;45.94;45031.94;5091411;28;20440;-73
2023/03/10 10:23:48;;;;;;;3.20;1.60;;;;;;;-143.84;45.19;45026.22;5091173;28;20455;-74
2023/03/10 10:26:18;;;;;;;2.30;2.10;;;;;;;-143.84;45.23;45068.13;5091397;28;20475;-73
2023/03/10 10:28:50;;;;;;;1.70;1.60;;;;;;;-143.84;46.56;45041.44;5091153;28;20497;-74
2023/03/10 10:31:19;;;;;;;2.70;1.80;;;;;;;-143.84;46.82;45024.31;5091266;28;20865;-74
2023/03/10 10:34:18;;;;;;;2.33;1.93;;;;;;;-143.84;46.56;45056.69;5091267;28;20905;-73
2023/03/10 10:36:50;;;;;;;2.03;1.87;;;;;;;-143.84;47.28;45070.00;5090612;28;20480;-74
2023/03/10 10:39:25;;;;;;;2.63;2.10;;;;;;;-143.84;46.46;45049.06;5089982;28;22043;-74
2023/03/10 10:41:52;;;;;;;1.80;1.70;;;;;;;-143.84;46.75;45054.78;5089731;28;21002;-74
2023/03/10 10:44:21;;;;;;;3.00;2.27;;;;;;;-143.84;46.92;45045.25;5090082;28;20469;-73
2023/03/10 10:46:53;;;;;;;2.30;2.10;;;;;;;-143.84;48.54;45039.53;5089588;28;20532;-74
2023/03/10 10:49:23;;;;;;;2.50;1.80;;;;;;;-143.84;46.83;45073.81;5089649;28;20459;-73
2023/03/10 10:51:59;;;;;;;3.23;1.70;;;;;;;-143.84;46.62;45031.94;5089263;28;20933;-74
2023/03/10 10:54:32;;;;;;;1.67;1.57;;;;;;;-143.84;46.71;45035.75;5089560;28;20446;-73
2023/03/10 10:57:01;;;;;;;3.20;1.90;;;;;;;-143.84;46.29;45064.31;5089021;28;20467;-74
2023/03/10 10:59:31;;;;;;;2.20;1.77;;;;;;;-143.84;46.11;45033.84;5088958;28;20493;-74
2023/03/10 11:01:59;;;;;;;2.33;1.77;;;;;;;-143.84;45.75;45039.53;5089031;28;20443;-74
2023/03/10 11:04:28;;;;;;;2.30;2.10;;;;;;;-143.84;45.23;45045.25;5089042;28;20440;-74
2023/03/10 11:07:10;;;;;;;2.23;1.57;;;;;;;-143.84;45.45;45022.41;5089205;28;20476;-73
2023/03/10 11:09:39;;;;;;;4.10;1.90;;;;;;;-143.84;45.38;45058.59;5089049;28;20564;-74
2023/03/10 11:12:12;;;;;;;2.90;1.80;;;;;;;-143.84;46.52;45024.31;5088998;28;20448;-74
2023/03/10 11:15:00;;;;;;;2.07;1.60;;;;;;;-143.84;45.21;45083.34;5089426;28;20440;-73
2023/03/10 11:17:33;;;;;;;1.60;1.50;;;;;;;-143.84;45.44;45037.66;5089267;28;20443;-73
2023/03/10 11:20:08;;;;;;;1.97;1.50;;;;;;;-143.84;44.88;45039.53;5088909;28;20436;-73
2023/03/10 11:22:43;;;;;;;2.30;1.63;;;;;;;-143.84;45.28;45050.97;5089146;28;20446;-74
2023/03/10 11:25:32;;;;;;;5.03;1.90;;;;;;;-143.84;45.15;45066.22;5089323;28;20440;-74
2023/03/10 11:28:14;;;;;;;1.83;1.57;;;;;;;-143.84;45.78;45066.22;5089375;28;20483;-74